createdAt,value
2023-03-12T00:00:18.103Z,-2.90
2023-03-12T00:02:45.190Z,-2.90
2023-03-12T00:05:13.397Z,-3.00
2023-03-12T00:07:40.531Z,-3.00
2023-03-12T00:10:09.224Z,-2.90
2023-03-12T00:12:36.445Z,-2.90
2023-03-12T00:15:04.083Z,-3.00
2023-03-12T00:17:31.139Z,-2.90
2023-03-12T00:19:59.205Z,-3.00
2023-03-12T00:22:26.455Z,-2.90
2023-03-12T00:24:54.690Z,-2.90
2023-03-12T00:27:22.595Z,-2.90
2023-03-12T00:29:50.288Z,-2.90
2023-03-12T00:32:17.718Z,-3.00
2023-03-12T00:34:45.030Z,-2.90
2023-03-12T00:37:12.062Z,-3.00
2023-03-12T00:39:39.321Z,-3.00
2023-03-12T00:42:06.708Z,-3.00
2023-03-12T00:44:33.859Z,-3.00
2023-03-12T00:47:01.249Z,-3.00
2023-03-12T00:49:28.521Z,-3.00
2023-03-12T00:51:55.732Z,-3.00
2023-03-12T00:54:23.624Z,-3.10
2023-03-12T00:56:51.073Z,-3.10
2023-03-12T00:59:18.304Z,-3.20
2023-03-12T01:01:45.569Z,-3.20
2023-03-12T01:04:13.017Z,-3.30
2023-03-12T01:06:40.505Z,-3.40
2023-03-12T01:09:09.327Z,-3.30
2023-03-12T01:11:38.028Z,-3.30
2023-03-12T01:14:08.561Z,-3.30
2023-03-12T01:16:35.965Z,-3.30
2023-03-12T01:19:03.664Z,-3.30
2023-03-12T01:21:31.662Z,-3.30
2023-03-12T01:23:59.042Z,-3.30
2023-03-12T01:26:26.478Z,-3.20
2023-03-12T01:28:53.534Z,-3.20
2023-03-12T01:31:22.826Z,-3.30
2023-03-12T01:33:51.893Z,-3.40
2023-03-12T01:36:24.443Z,-3.40
2023-03-12T01:38:53.201Z,-3.50
2023-03-12T01:41:20.943Z,-3.50
2023-03-12T01:43:48.079Z,-3.50
2023-03-12T01:46:34.666Z,-3.50
2023-03-12T01:49:09.461Z,-3.50
2023-03-12T01:51:53.156Z,-3.50
2023-03-12T01:54:43.992Z,-3.50
2023-03-12T01:57:16.181Z,-3.50
2023-03-12T01:59:47.553Z,-3.60
2023-03-12T02:02:18.764Z,-3.60
2023-03-12T02:04:48.006Z,-3.60
2023-03-12T02:07:17.217Z,-3.60
2023-03-12T02:09:48.892Z,-3.70
2023-03-12T02:12:17.580Z,-3.60
2023-03-12T02:14:45.063Z,-3.70
2023-03-12T02:17:12.630Z,-3.70
2023-03-12T02:20:07.796Z,-3.60
2023-03-12T02:22:37.046Z,-3.60
2023-03-12T02:25:22.829Z,-3.50
2023-03-12T02:27:49.929Z,-3.40
2023-03-12T02:30:17.771Z,-3.30
2023-03-12T02:32:47.292Z,-3.20
2023-03-12T02:35:16.818Z,-3.10
2023-03-12T02:37:55.930Z,-3.00
2023-03-12T02:40:44.519Z,-3.00
2023-03-12T02:43:12.186Z,-2.90
2023-03-12T02:45:39.776Z,-2.90
2023-03-12T02:48:09.849Z,-2.90
2023-03-12T02:50:38.031Z,-2.80
2023-03-12T02:53:05.488Z,-2.80
2023-03-12T02:55:32.803Z,-2.80
2023-03-12T02:57:59.919Z,-2.80
2023-03-12T03:00:26.998Z,-2.80
2023-03-12T03:02:54.138Z,-2.80
2023-03-12T03:05:21.831Z,-2.70
2023-03-12T03:07:48.935Z,-2.70
2023-03-12T03:10:17.637Z,-2.70
2023-03-12T03:12:44.907Z,-2.70
2023-03-12T03:15:12.207Z,-2.70
2023-03-12T03:17:39.202Z,-2.70
2023-03-12T03:20:09.032Z,-2.60
2023-03-12T03:22:35.993Z,-2.60
2023-03-12T03:25:03.326Z,-2.60
2023-03-12T03:27:30.624Z,-2.60
2023-03-12T03:29:57.808Z,-2.60
2023-03-12T03:32:24.881Z,-2.60
2023-03-12T03:34:52.062Z,-2.60
2023-03-12T03:37:19.246Z,-2.60
2023-03-12T03:39:46.371Z,-2.70
2023-03-12T03:42:13.523Z,-2.60
2023-03-12T03:44:40.543Z,-2.60
2023-03-12T03:47:07.799Z,-2.50
2023-03-12T03:49:34.977Z,-2.50
2023-03-12T03:52:02.050Z,-2.50
2023-03-12T03:54:31.246Z,-2.50
2023-03-12T03:56:58.415Z,-2.50
2023-03-12T03:59:25.551Z,-2.50
2023-03-12T04:01:52.844Z,-2.50
2023-03-12T04:04:19.905Z,-2.40
2023-03-12T04:06:47.122Z,-2.50
2023-03-12T04:09:14.173Z,-2.50
2023-03-12T04:11:41.411Z,-2.50
2023-03-12T04:14:08.346Z,-2.50
2023-03-12T04:16:35.403Z,-2.50
2023-03-12T04:19:02.505Z,-2.50
2023-03-12T04:21:29.754Z,-2.40
2023-03-12T04:23:56.820Z,-2.40
2023-03-12T04:26:24.015Z,-2.40
2023-03-12T04:28:51.035Z,-2.40
2023-03-12T04:31:18.195Z,-2.40
2023-03-12T04:33:45.262Z,-2.30
2023-03-12T04:36:14.761Z,-2.30
2023-03-12T04:38:41.831Z,-2.30
2023-03-12T04:41:12.739Z,-2.40
2023-03-12T04:43:40.137Z,-2.40
2023-03-12T04:46:07.644Z,-2.40
2023-03-12T04:48:35.630Z,-2.50
2023-03-12T04:51:04.542Z,-2.50
2023-03-12T04:53:32.076Z,-2.40
2023-03-12T04:55:59.918Z,-2.40
2023-03-12T04:58:27.408Z,-2.40
2023-03-12T05:00:54.647Z,-2.40
2023-03-12T05:03:22.272Z,-2.30
2023-03-12T05:05:49.313Z,-2.30
2023-03-12T05:08:16.426Z,-2.30
2023-03-12T05:10:46.158Z,-2.20
2023-03-12T05:13:18.903Z,-2.20
2023-03-12T05:15:50.837Z,-2.10
2023-03-12T05:18:18.157Z,-2.10
2023-03-12T05:20:45.266Z,-2.10
2023-03-12T05:23:12.535Z,-2.00
2023-03-12T05:25:44.329Z,-1.90
2023-03-12T05:28:11.415Z,-1.90
2023-03-12T05:30:39.800Z,-1.90
2023-03-12T05:33:06.836Z,-1.90
2023-03-12T05:35:33.826Z,-1.80
2023-03-12T05:38:01.249Z,-1.80
2023-03-12T05:40:28.301Z,-1.80
2023-03-12T05:42:55.889Z,-1.80
2023-03-12T05:45:22.885Z,-1.70
2023-03-12T05:47:49.987Z,-1.70
2023-03-12T05:50:16.943Z,-1.70
2023-03-12T05:52:44.018Z,-1.70
2023-03-12T05:55:11.278Z,-1.70
2023-03-12T05:57:38.260Z,-1.60
2023-03-12T06:00:06.094Z,-1.60
2023-03-12T06:02:33.076Z,-1.60
2023-03-12T06:05:00.034Z,-1.50
2023-03-12T06:07:27.426Z,-1.40
2023-03-12T06:09:54.805Z,-1.40
2023-03-12T06:12:21.929Z,-1.30
2023-03-12T06:14:48.946Z,-1.30
2023-03-12T06:17:15.930Z,-1.20
2023-03-12T06:19:44.096Z,-1.10
2023-03-12T06:22:11.060Z,-1.00
2023-03-12T06:24:38.136Z,-0.90
2023-03-12T06:27:05.333Z,-0.80
2023-03-12T06:29:32.396Z,-0.90
2023-03-12T06:31:59.350Z,-0.80
2023-03-12T06:34:26.830Z,-0.70
2023-03-12T06:36:53.828Z,-0.60
2023-03-12T06:39:21.297Z,-0.60
2023-03-12T06:41:48.848Z,-0.50
2023-03-12T06:44:15.993Z,-0.50
2023-03-12T06:46:44.461Z,-0.50
2023-03-12T06:49:12.092Z,-0.40
2023-03-12T06:51:39.208Z,-0.20
2023-03-12T06:54:06.401Z,-0.10
2023-03-12T06:56:33.794Z,0.00
2023-03-12T06:59:00.945Z,0.00
2023-03-12T07:01:28.244Z,0.10
2023-03-12T07:03:55.327Z,0.10
2023-03-12T07:06:24.106Z,0.10
2023-03-12T07:08:51.512Z,0.20
2023-03-12T07:11:19.557Z,0.40
2023-03-12T07:13:46.532Z,0.40
2023-03-12T07:16:13.634Z,0.40
2023-03-12T07:18:40.804Z,0.50
2023-03-12T07:21:07.808Z,0.50
2023-03-12T07:23:34.773Z,0.60
2023-03-12T07:26:03.521Z,0.70
2023-03-12T07:28:30.467Z,0.80
2023-03-12T07:31:02.499Z,0.90
2023-03-12T07:33:29.641Z,0.90
2023-03-12T07:35:56.953Z,0.90
2023-03-12T07:38:24.107Z,0.90
2023-03-12T07:40:55.391Z,0.90
2023-03-12T07:43:23.229Z,0.80
2023-03-12T07:45:50.533Z,0.80
2023-03-12T07:48:20.057Z,0.80
2023-03-12T07:50:47.515Z,0.80
2023-03-12T07:53:14.698Z,0.90
2023-03-12T07:55:44.630Z,0.90
2023-03-12T07:58:13.595Z,0.90
2023-03-12T08:00:40.710Z,0.80
2023-03-12T08:03:08.035Z,0.80
2023-03-12T08:05:35.278Z,0.80
2023-03-12T08:08:02.367Z,0.90
2023-03-12T08:10:29.516Z,1.10
2023-03-12T08:12:56.669Z,1.30
2023-03-12T08:15:23.622Z,1.60
2023-03-12T08:17:50.584Z,1.90
2023-03-12T08:20:17.751Z,2.10
2023-03-12T08:22:52.006Z,2.20
2023-03-12T08:25:21.187Z,2.20
2023-03-12T08:27:48.239Z,2.20
2023-03-12T08:30:15.519Z,2.40
2023-03-12T08:32:42.470Z,2.60
2023-03-12T08:35:10.309Z,2.80
2023-03-12T08:37:37.300Z,3.10
2023-03-12T08:40:13.821Z,3.20
2023-03-12T08:42:42.078Z,3.20
2023-03-12T08:45:10.451Z,3.20
2023-03-12T08:47:42.561Z,3.10
2023-03-12T08:50:14.487Z,2.90
2023-03-12T08:52:41.442Z,2.80
2023-03-12T08:55:08.883Z,2.60
2023-03-12T08:57:35.963Z,2.50
2023-03-12T09:00:05.839Z,2.40
2023-03-12T09:02:32.889Z,2.40
2023-03-12T09:04:59.803Z,2.30
2023-03-12T09:07:26.835Z,2.30
2023-03-12T09:09:55.826Z,2.40
2023-03-12T09:12:23.571Z,2.50
2023-03-12T09:15:03.038Z,2.70
2023-03-12T09:17:39.346Z,2.80
2023-03-12T09:20:08.536Z,2.70
2023-03-12T09:22:38.642Z,2.60
2023-03-12T09:25:06.904Z,2.60
2023-03-12T09:27:41.761Z,2.70
2023-03-12T09:30:11.674Z,3.10
2023-03-12T09:32:39.145Z,3.50
2023-03-12T09:35:08.091Z,3.70
2023-03-12T09:37:35.778Z,4.00
2023-03-12T09:40:06.229Z,4.10
2023-03-12T09:42:47.510Z,4.10
2023-03-12T09:45:29.045Z,3.70
2023-03-12T09:47:58.847Z,3.60
2023-03-12T09:50:29.963Z,3.50
2023-03-12T09:53:12.007Z,3.60
2023-03-12T09:55:42.073Z,3.70
2023-03-12T09:58:24.884Z,3.70
2023-03-12T10:01:14.718Z,3.70
2023-03-12T10:04:12.685Z,3.80
2023-03-12T10:07:13.124Z,4.00
2023-03-12T10:10:10.021Z,4.40
2023-03-12T10:12:42.900Z,4.50
2023-03-12T10:15:52.012Z,4.90
2023-03-12T10:18:31.914Z,5.00
2023-03-12T10:21:04.885Z,4.90
2023-03-12T10:23:59.814Z,4.70
2023-03-12T10:26:32.287Z,4.70
2023-03-12T10:29:14.171Z,4.50
2023-03-12T10:32:01.869Z,4.60
2023-03-12T10:34:37.694Z,4.50
2023-03-12T10:37:18.878Z,4.50
2023-03-12T10:39:46.167Z,4.70
2023-03-12T10:42:17.130Z,4.80
2023-03-12T10:44:45.397Z,5.10
2023-03-12T10:47:28.787Z,5.20
2023-03-12T10:50:12.220Z,5.30
2023-03-12T10:52:39.484Z,5.00
2023-03-12T10:55:29.764Z,5.00
2023-03-12T10:57:57.573Z,5.20
2023-03-12T11:00:30.407Z,5.20
2023-03-12T11:03:19.937Z,5.20
2023-03-12T11:05:50.427Z,4.90
2023-03-12T11:08:24.256Z,4.90
2023-03-12T11:10:51.418Z,4.90
2023-03-12T11:13:52.568Z,4.90
2023-03-12T11:16:19.567Z,4.80
2023-03-12T11:19:07.406Z,4.70
2023-03-12T11:21:37.415Z,4.70
2023-03-12T11:24:13.343Z,4.60
2023-03-12T11:26:57.428Z,4.50
2023-03-12T11:29:27.220Z,4.40
2023-03-12T11:32:33.372Z,4.50
2023-03-12T11:35:01.359Z,4.50
2023-03-12T11:37:46.933Z,4.50
2023-03-12T11:40:28.848Z,4.50
2023-03-12T11:43:12.715Z,4.50
2023-03-12T11:45:45.486Z,4.50
2023-03-12T11:48:47.701Z,4.60
2023-03-12T11:51:38.851Z,4.50
2023-03-12T11:54:45.066Z,4.60
2023-03-12T11:57:24.947Z,4.70
2023-03-12T12:00:12.801Z,4.80
2023-03-12T12:03:16.628Z,4.80
2023-03-12T12:06:13.405Z,4.90
2023-03-12T12:09:05.437Z,5.00
2023-03-12T12:11:55.409Z,5.20
2023-03-12T12:14:39.558Z,5.40
2023-03-12T12:17:16.977Z,5.50
2023-03-12T12:20:12.073Z,5.60
2023-03-12T12:22:56.944Z,5.70
2023-03-12T12:25:44.026Z,5.80
2023-03-12T12:28:13.933Z,5.90
2023-03-12T12:31:17.636Z,6.10
2023-03-12T12:34:06.199Z,6.30
2023-03-12T12:36:35.847Z,6.30
2023-03-12T12:39:17.513Z,6.40
2023-03-12T12:41:56.006Z,6.40
2023-03-12T12:44:34.567Z,6.40
2023-03-12T12:47:06.994Z,6.40
2023-03-12T12:49:43.128Z,6.50
2023-03-12T12:52:17.114Z,6.50
2023-03-12T12:55:19.566Z,6.50
2023-03-12T12:58:03.669Z,6.50
2023-03-12T13:00:40.603Z,6.50
2023-03-12T13:03:14.213Z,6.50
2023-03-12T13:05:54.222Z,6.60
2023-03-12T13:08:43.261Z,6.60
2023-03-12T13:11:20.073Z,6.60
2023-03-12T13:14:02.979Z,6.70
2023-03-12T13:16:39.566Z,6.60
2023-03-12T13:19:16.050Z,6.70
2023-03-12T13:22:04.879Z,6.70
2023-03-12T13:24:43.451Z,6.60
2023-03-12T13:27:24.405Z,6.60
2023-03-12T13:29:57.109Z,6.60
2023-03-12T13:32:37.560Z,6.60
2023-03-12T13:35:16.787Z,6.60
2023-03-12T13:37:52.703Z,6.60
2023-03-12T13:40:32.108Z,6.60
2023-03-12T13:43:15.822Z,6.60
2023-03-12T13:45:55.386Z,6.60
2023-03-12T13:48:24.026Z,6.60
2023-03-12T13:50:57.269Z,6.60
2023-03-12T13:53:40.629Z,6.70
2023-03-12T13:56:12.377Z,6.70
2023-03-12T13:58:50.388Z,6.80
2023-03-12T14:01:22.445Z,6.90
2023-03-12T14:03:56.400Z,7.00
2023-03-12T14:06:26.405Z,7.10
2023-03-12T14:09:24.544Z,7.10
2023-03-12T14:11:55.140Z,7.30
2023-03-12T14:14:54.781Z,7.50
2023-03-12T14:17:31.144Z,7.80
2023-03-12T14:20:02.702Z,8.20
2023-03-12T14:22:33.845Z,8.30
2023-03-12T14:25:13.947Z,8.50
2023-03-12T14:27:44.793Z,8.60
2023-03-12T14:30:25.822Z,8.40
2023-03-12T14:32:56.964Z,8.30
2023-03-12T14:35:46.659Z,8.10
2023-03-12T14:38:20.486Z,8.00
2023-03-12T14:40:57.347Z,7.90
2023-03-12T14:43:27.603Z,7.80
2023-03-12T14:45:57.265Z,7.80
2023-03-12T14:48:30.026Z,7.90
2023-03-12T14:50:58.662Z,8.00
2023-03-12T14:53:29.357Z,8.10
2023-03-12T14:56:24.368Z,8.10
2023-03-12T14:58:52.359Z,8.10
2023-03-12T15:01:23.089Z,8.10
2023-03-12T15:03:57.161Z,8.10
2023-03-12T15:06:38.255Z,8.00
2023-03-12T15:09:07.513Z,8.10
2023-03-12T15:11:37.378Z,8.20
2023-03-12T15:14:12.221Z,8.40
2023-03-12T15:16:39.555Z,8.50
2023-03-12T15:19:07.005Z,8.60
2023-03-12T15:21:35.690Z,8.60
2023-03-12T15:24:03.872Z,8.50
2023-03-12T15:26:34.906Z,8.40
2023-03-12T15:29:26.847Z,8.40
2023-03-12T15:31:59.437Z,8.40
2023-03-12T15:34:33.846Z,8.40
2023-03-12T15:37:04.719Z,8.40
2023-03-12T15:39:33.097Z,8.50
2023-03-12T15:42:10.040Z,8.50
2023-03-12T15:44:58.868Z,8.50
2023-03-12T15:47:29.590Z,8.50
2023-03-12T15:50:41.123Z,8.50
2023-03-12T15:53:14.015Z,8.60
2023-03-12T15:55:41.998Z,8.60
2023-03-12T15:58:46.000Z,8.50
2023-03-12T16:01:28.351Z,8.50
2023-03-12T16:03:55.667Z,8.50
2023-03-12T16:06:25.898Z,8.40
2023-03-12T16:08:58.624Z,8.40
2023-03-12T16:11:29.043Z,8.30
2023-03-12T16:14:08.324Z,8.30
2023-03-12T16:16:35.538Z,8.20
2023-03-12T16:19:03.562Z,8.20
2023-03-12T16:21:30.536Z,8.10
2023-03-12T16:23:57.417Z,8.10
2023-03-12T16:26:24.528Z,8.00
2023-03-12T16:28:51.431Z,8.00
2023-03-12T16:31:18.553Z,7.90
2023-03-12T16:33:45.789Z,7.90
2023-03-12T16:36:17.837Z,7.90
2023-03-12T16:38:45.936Z,7.80
2023-03-12T16:41:18.399Z,7.80
2023-03-12T16:43:48.892Z,7.80
2023-03-12T16:46:19.247Z,7.80
2023-03-12T16:48:52.664Z,7.80
2023-03-12T16:51:20.239Z,7.70
2023-03-12T16:53:51.043Z,7.70
2023-03-12T16:56:27.565Z,7.60
2023-03-12T16:58:54.744Z,7.60
2023-03-12T17:01:24.736Z,7.60
2023-03-12T17:03:54.142Z,7.60
2023-03-12T17:06:26.080Z,7.70
2023-03-12T17:08:54.321Z,7.70
2023-03-12T17:11:27.782Z,7.70
2023-03-12T17:14:00.863Z,7.70
2023-03-12T17:16:28.685Z,7.50
2023-03-12T17:18:55.756Z,7.50
2023-03-12T17:21:23.181Z,7.50
2023-03-12T17:23:50.842Z,7.50
2023-03-12T17:26:18.617Z,7.50
2023-03-12T17:28:45.897Z,7.50
2023-03-12T17:31:12.927Z,7.50
2023-03-12T17:33:40.070Z,7.40
2023-03-12T17:36:09.374Z,7.30
2023-03-12T17:38:38.762Z,7.30
2023-03-12T17:41:09.457Z,7.30
2023-03-12T17:43:41.245Z,7.30
2023-03-12T17:46:09.788Z,7.30
2023-03-12T17:48:36.840Z,7.20
2023-03-12T17:51:11.156Z,7.20
2023-03-12T17:53:42.098Z,7.20
2023-03-12T17:56:09.334Z,7.20
2023-03-12T17:58:36.288Z,7.10
2023-03-12T18:01:03.409Z,7.10
2023-03-12T18:03:30.466Z,7.10
2023-03-12T18:05:57.852Z,7.10
2023-03-12T18:08:24.811Z,7.10
2023-03-12T18:10:52.045Z,7.10
2023-03-12T18:13:19.166Z,7.10
2023-03-12T18:15:54.755Z,7.00
2023-03-12T18:18:23.139Z,7.10
2023-03-12T18:20:50.710Z,7.10
2023-03-12T18:23:18.942Z,7.00
2023-03-12T18:25:46.258Z,7.00
2023-03-12T18:28:16.848Z,7.00
2023-03-12T18:30:47.261Z,7.10
2023-03-12T18:33:14.593Z,7.00
2023-03-12T18:35:43.024Z,7.00
2023-03-12T18:38:10.096Z,7.00
2023-03-12T18:40:36.999Z,6.90
2023-03-12T18:43:03.967Z,7.00
2023-03-12T18:45:31.230Z,7.00
2023-03-12T18:47:58.260Z,7.00
2023-03-12T18:50:25.575Z,7.00
2023-03-12T18:52:52.765Z,7.00
2023-03-12T18:55:19.698Z,7.00
2023-03-12T18:57:47.758Z,7.00
2023-03-12T19:00:19.587Z,7.10
2023-03-12T19:02:48.237Z,7.10
2023-03-12T19:05:15.737Z,7.10
2023-03-12T19:07:42.896Z,7.20
2023-03-12T19:10:10.844Z,7.20
2023-03-12T19:12:50.962Z,7.30
2023-03-12T19:15:19.781Z,7.30
2023-03-12T19:17:46.746Z,7.30
2023-03-12T19:20:14.278Z,7.40
2023-03-12T19:22:41.367Z,7.30
2023-03-12T19:25:08.709Z,7.30
2023-03-12T19:27:35.653Z,7.40
2023-03-12T19:30:02.682Z,7.40
2023-03-12T19:32:40.715Z,7.40
2023-03-12T19:35:11.610Z,7.30
2023-03-12T19:37:38.613Z,7.30
2023-03-12T19:40:06.223Z,7.20
2023-03-12T19:42:33.399Z,7.30
2023-03-12T19:45:00.603Z,7.30
2023-03-12T19:47:28.137Z,7.30
2023-03-12T19:49:55.150Z,7.30
2023-03-12T19:52:22.117Z,7.20
2023-03-12T19:55:01.489Z,7.10
2023-03-12T19:57:31.646Z,7.10
2023-03-12T19:59:58.969Z,7.10
2023-03-12T20:02:26.567Z,7.10
2023-03-12T20:04:55.462Z,7.10
2023-03-12T20:07:22.540Z,7.10
2023-03-12T20:09:49.613Z,7.10
2023-03-12T20:12:16.605Z,7.10
2023-03-12T20:14:43.652Z,7.00
2023-03-12T20:17:12.289Z,7.00
2023-03-12T20:19:39.605Z,7.00
2023-03-12T20:22:07.251Z,6.90
2023-03-12T20:24:34.593Z,7.00
2023-03-12T20:27:04.856Z,7.10
2023-03-12T20:29:34.942Z,7.20
2023-03-12T20:32:01.899Z,7.20
2023-03-12T20:34:29.096Z,7.20
2023-03-12T20:36:56.000Z,7.10
2023-03-12T20:39:22.922Z,7.30
2023-03-12T20:41:51.194Z,7.30
2023-03-12T20:44:18.533Z,7.40
2023-03-12T20:46:46.581Z,7.40
2023-03-12T20:49:13.918Z,7.50
2023-03-12T20:51:42.795Z,7.50
2023-03-12T20:54:10.388Z,7.60
2023-03-12T20:56:38.315Z,7.60
2023-03-12T20:59:05.447Z,7.60
2023-03-12T21:01:32.407Z,7.70
2023-03-12T21:03:59.413Z,7.60
2023-03-12T21:06:27.127Z,7.60
2023-03-12T21:08:58.272Z,7.50
2023-03-12T21:11:26.988Z,7.60
2023-03-12T21:13:54.204Z,7.60
2023-03-12T21:16:21.182Z,7.60
2023-03-12T21:18:49.284Z,7.60
2023-03-12T21:21:16.607Z,7.60
2023-03-12T21:23:43.764Z,7.60
2023-03-12T21:26:11.868Z,7.60
2023-03-12T21:28:39.019Z,7.60
2023-03-12T21:31:08.617Z,7.70
2023-03-12T21:33:36.102Z,7.80
2023-03-12T21:36:08.097Z,7.70
2023-03-12T21:38:36.037Z,7.80
2023-03-12T21:41:12.402Z,7.80
2023-03-12T21:43:40.148Z,7.80
2023-03-12T21:46:12.417Z,7.90
2023-03-12T21:48:40.158Z,7.90
2023-03-12T21:51:09.880Z,7.90
2023-03-12T21:53:37.333Z,8.00
2023-03-12T21:56:05.918Z,8.00
2023-03-12T21:58:34.025Z,7.90
2023-03-12T22:01:08.786Z,7.90
2023-03-12T22:03:36.585Z,7.90
2023-03-12T22:06:04.414Z,7.90
2023-03-12T22:08:32.289Z,7.90
2023-03-12T22:10:59.450Z,7.90
2023-03-12T22:13:26.497Z,7.90
2023-03-12T22:15:55.710Z,7.90
2023-03-12T22:18:23.262Z,7.90
2023-03-12T22:20:51.913Z,7.90
2023-03-12T22:23:19.501Z,7.90
2023-03-12T22:25:46.735Z,7.90
2023-03-12T22:28:14.334Z,7.80
2023-03-12T22:30:41.317Z,7.80
2023-03-12T22:33:08.842Z,7.80
2023-03-12T22:35:42.867Z,7.90
2023-03-12T22:38:09.829Z,7.80
2023-03-12T22:40:36.831Z,7.80
2023-03-12T22:43:03.812Z,7.90
2023-03-12T22:45:30.754Z,7.90
2023-03-12T22:47:57.814Z,7.90
2023-03-12T22:50:24.953Z,7.80
2023-03-12T22:52:52.080Z,7.80
2023-03-12T22:55:19.189Z,7.80
2023-03-12T22:57:46.089Z,7.90
2023-03-12T23:00:16.907Z,7.80
2023-03-12T23:02:43.923Z,7.80
2023-03-12T23:05:11.439Z,7.80
2023-03-12T23:07:38.738Z,7.90
2023-03-12T23:10:07.874Z,7.90
2023-03-12T23:12:34.878Z,7.80
2023-03-12T23:15:01.775Z,7.70
2023-03-12T23:17:28.827Z,7.60
2023-03-12T23:19:55.708Z,7.50
2023-03-12T23:22:22.705Z,7.50
2023-03-12T23:24:49.914Z,7.50
2023-03-12T23:27:17.049Z,7.40
2023-03-12T23:29:44.075Z,7.40
2023-03-12T23:32:10.991Z,7.40
2023-03-12T23:34:38.032Z,7.30
2023-03-12T23:37:05.233Z,7.30
2023-03-12T23:39:35.357Z,7.30
2023-03-12T23:42:06.437Z,7.30
2023-03-12T23:44:33.368Z,7.20
2023-03-12T23:47:00.529Z,7.10
2023-03-12T23:49:27.433Z,7.10
2023-03-12T23:51:54.723Z,7.00
2023-03-12T23:54:21.648Z,6.90
2023-03-12T23:56:48.756Z,6.90
2023-03-12T23:59:15.712Z,6.90
